Ashiya — JD2302 — position and weather

sailwx.info

Track history (hours):
 
Tides and Currents Weather Stations Pressure Air Temp Water Temp Dewpoint Dewpoint Depression Visibility Wind Speed Wind Dir Waves Ship Positions

Ashiya

Last reported at 2017-Oct-18 04:28 UTC. Time now 2017-Oct-19 05:45 UTC.
Position N 34°36' E 134°53'.

Length 96 m; draft 4.5 m.

Type: Cargo ship. MMSI: 431501871.

Date/timePositionNaut miles runAvg speedWind from/ knotsBaromVisibWave heightAir tempDewpointWater temp
2017-Oct-18 04:28N 34°36' E 134°53'710.6
2017-Oct-18 03:51N 34°37' E 135°01'3 9.4
2017-Oct-18 03:29N 34°36' E 135°05'613.1
2017-Oct-18 03:00N 34°37' E 135°12'3 6.7
2017-Oct-18 02:30N 34°40' E 135°14'0 0.0
2017-Oct-18 01:56N 34°40' E 135°14'0 0.0
2017-Oct-18 01:31N 34°40' E 135°14'2 4.4
2017-Oct-18 01:00N 34°41' E 135°17'0 0.0
2017-Oct-18 00:30N 34°41' E 135°17'1 1.3
2017-Oct-18 00:00N 34°41' E 135°17'3 5.0
2017-Oct-17 23:25N 34°38' E 135°19'0 0.1
2017-Oct-17 22:55N 34°38' E 135°19'0 0.0
2017-Oct-17 22:25N 34°38' E 135°19'0 0.0
2017-Oct-17 21:49N 34°38' E 135°19'0 0.0
2017-Oct-17 20:43N 34°38' E 135°19'0 0.1
2017-Oct-17 20:19N 34°38' E 135°19'0 0.1
2017-Oct-17 19:56N 34°38' E 135°19'4 9.2
2017-Oct-17 19:30N 34°36' E 135°15'612.8
2017-Oct-17 19:00N 34°34' E 135°08'713.6
2017-Oct-17 18:30N 34°37' E 135°00'713.5
2017-Oct-17 17:59N 34°34' E 134°52'2 0.0
2017-Oct-16 06:52N 34°36' E 134°53'514.0
2017-Oct-16 06:30N 34°37' E 134°58'612.3
2017-Oct-16 06:00N 34°36' E 135°06'612.9
2017-Oct-16 05:30N 34°37' E 135°14'3 5.8
2017-Oct-16 05:00N 34°40' E 135°14'0 0.0
2017-Oct-16 04:30N 34°40' E 135°14'0 0.0
2017-Oct-16 04:00N 34°40' E 135°14'0 0.0
2017-Oct-16 03:30N 34°40' E 135°14'0 0.0
2017-Oct-16 03:00N 34°40' E 135°14'0 0.0
2017-Oct-16 02:30N 34°40' E 135°14'1 1.6
2017-Oct-16 02:00N 34°39' E 135°15'1 2.3
2017-Oct-16 01:31N 34°40' E 135°15'1 2.4
2017-Oct-16 00:54N 34°41' E 135°17'0 0.0
2017-Oct-16 00:30N 34°41' E 135°17'0 0.9
2017-Oct-16 00:00N 34°41' E 135°16'3 4.9
2017-Oct-15 23:23N 34°41' E 135°13'0 0.0
2017-Oct-15 22:59N 34°41' E 135°13'0 0.0
2017-Oct-15 22:29N 34°41' E 135°13'0 0.0
2017-Oct-15 21:59N 34°41' E 135°13'0 0.0
2017-Oct-15 21:29N 34°41' E 135°13'0 0.0
2017-Oct-15 20:53N 34°41' E 135°13'0 0.0
2017-Oct-15 20:23N 34°41' E 135°13'0 0.0
2017-Oct-15 19:59N 34°41' E 135°13'0 0.0
2017-Oct-15 19:29N 34°41' E 135°13'0 0.0
2017-Oct-15 18:59N 34°41' E 135°13'0 0.0
2017-Oct-15 18:29N 34°41' E 135°13'0 0.0
2017-Oct-15 17:59N 34°41' E 135°13'0 0.0
2017-Oct-15 17:29N 34°41' E 135°13'0 0.0
2017-Oct-15 16:59N 34°41' E 135°13'0 0.0
2017-Oct-15 16:29N 34°41' E 135°13'0 0.0
2017-Oct-15 15:59N 34°41' E 135°13'0 0.0
2017-Oct-15 15:29N 34°41' E 135°13'0 0.0
2017-Oct-15 14:59N 34°41' E 135°13'0 0.0
2017-Oct-15 13:53N 34°41' E 135°13'0 0.0
2017-Oct-15 13:29N 34°41' E 135°13'0 0.0
2017-Oct-15 12:59N 34°41' E 135°13'0 0.0
2017-Oct-15 12:29N 34°41' E 135°13'0 0.0
2017-Oct-15 11:53N 34°41' E 135°13'0 0.0
2017-Oct-15 11:23N 34°41' E 135°13'0 0.0
2017-Oct-15 10:59N 34°41' E 135°13'0 0.0
2017-Oct-15 10:29N 34°41' E 135°13'0 0.0
2017-Oct-15 09:59N 34°41' E 135°13'0 0.0
2017-Oct-15 09:29N 34°41' E 135°13'0 0.0
2017-Oct-15 08:59N 34°41' E 135°13'0 0.0
2017-Oct-15 08:23N 34°41' E 135°13'0 0.0
2017-Oct-15 07:59N 34°41' E 135°13'0 0.0
2017-Oct-15 07:29N 34°41' E 135°13'0 0.0
2017-Oct-15 06:59N 34°41' E 135°13'0 0.0
2017-Oct-15 06:29N 34°41' E 135°13'0 0.0
2017-Oct-15 05:59N 34°41' E 135°13'0 0.0
2017-Oct-15 05:29N 34°41' E 135°13'0 0.0
2017-Oct-15 04:59N 34°41' E 135°13'0 0.0
2017-Oct-15 04:29N 34°41' E 135°13'0 0.0
2017-Oct-15 03:59N 34°41' E 135°13'0 0.0
2017-Oct-15 03:23N 34°41' E 135°13'0 0.0
2017-Oct-15 02:59N 34°41' E 135°13'0 0.0
2017-Oct-15 02:29N 34°41' E 135°13'0 0.0
2017-Oct-15 01:59N 34°41' E 135°13'0 0.0
2017-Oct-15 01:29N 34°41' E 135°13'0 0.0
2017-Oct-15 00:53N 34°41' E 135°13'0 0.0
2017-Oct-15 00:29N 34°41' E 135°13'0 0.0
2017-Oct-14 23:59N 34°41' E 135°13'1 2.4
2017-Oct-14 23:30N 34°41' E 135°14'4 7.9
2017-Oct-14 23:00N 34°37' E 135°14'0 0.5
2017-Oct-14 22:29N 34°37' E 135°14'0 0.0
2017-Oct-14 21:59N 34°37' E 135°14'0 0.0
2017-Oct-14 21:29N 34°37' E 135°14'0 0.0
2017-Oct-14 20:59N 34°37' E 135°14'0 0.0
2017-Oct-14 20:29N 34°37' E 135°14'0 0.0
2017-Oct-14 19:59N 34°37' E 135°14'0 0.0
2017-Oct-14 19:29N 34°37' E 135°14'0 0.0
2017-Oct-14 18:59N 34°37' E 135°14'0 0.1
2017-Oct-14 18:23N 34°37' E 135°14'0 0.2
2017-Oct-14 18:00N 34°37' E 135°14'5 9.9
2017-Oct-14 17:31N 34°36' E 135°09'712.7
2017-Oct-14 16:59N 34°37' E 135°01'612.7
2017-Oct-14 16:31N 34°35' E 134°54'712.7
2017-Oct-14 15:59N 34°32' E 134°46'6 0.2
2017-Oct-13 09:44N 34°35' E 134°52'312.8
2017-Oct-13 09:30N 34°37' E 134°55'612.1
2017-Oct-13 08:59N 34°37' E 135°03'612.4
2017-Oct-13 08:30N 34°37' E 135°10'510.1
2017-Oct-13 08:00N 34°39' E 135°15'1 1.0
2017-Oct-13 07:20N 34°39' E 135°15'0 0.0
2017-Oct-13 06:56N 34°39' E 135°15'0 0.0
2017-Oct-13 06:30N 34°39' E 135°15'2 4.0
2017-Oct-13 06:00N 34°41' E 135°16'0 0.7
2017-Oct-13 05:30N 34°41' E 135°17'0 0.0
2017-Oct-13 05:00N 34°41' E 135°17'0 0.0
2017-Oct-13 04:30N 34°41' E 135°17'0 0.0
2017-Oct-13 04:00N 34°41' E 135°17'3 5.6
2017-Oct-13 03:30N 34°39' E 135°19'0 0.5
2017-Oct-13 03:00N 34°39' E 135°19'0 0.0
2017-Oct-13 02:18N 34°39' E 135°19'0 0.0
2017-Oct-13 01:48N 34°39' E 135°19'0 0.0
2017-Oct-13 01:24N 34°39' E 135°19'0 0.0
2017-Oct-13 01:00N 34°39' E 135°19'4 7.6
2017-Oct-13 00:31N 34°39' E 135°15'0 0.3
2017-Oct-13 00:00N 34°39' E 135°15'0 0.0
2017-Oct-12 23:30N 34°39' E 135°15'2 4.3
2017-Oct-12 23:00N 34°37' E 135°15'1 1.7
2017-Oct-12 22:27N 34°37' E 135°14'0 0.0
2017-Oct-12 21:57N 34°37' E 135°14'0 0.1
2017-Oct-12 21:30N 34°37' E 135°14'5 9.7
2017-Oct-12 21:00N 34°35' E 135°08'612.8
2017-Oct-12 20:30N 34°37' E 135°01'612.6
2017-Oct-12 20:00N 34°35' E 134°53'21 0.5
2017-Oct-10 23:36N 34°38' E 135°19'0 0.0
2017-Oct-10 23:30N 34°38' E 135°19'0 0.0
2017-Oct-10 22:54N 34°38' E 135°19'0 0.0
2017-Oct-10 22:24N 34°38' E 135°19'0 0.1
2017-Oct-10 22:00N 34°38' E 135°19'0 0.0
2017-Oct-10 21:30N 34°38' E 135°19'0 0.0
2017-Oct-10 21:00N 34°38' E 135°19'0 0.1
2017-Oct-10 20:24N 34°38' E 135°19'0 0.1
2017-Oct-10 20:00N 34°38' E 135°19'4 7.5
2017-Oct-10 19:30N 34°36' E 135°15'612.8
2017-Oct-10 19:00N 34°35' E 135°08'714.4
2017-Oct-10 18:30N 34°37' E 134°59'714.2
2017-Oct-10 18:01N 34°34' E 134°51'5 0.2
2017-Oct-09 08:26N 34°33' E 134°45'711.7
2017-Oct-09 07:52N 34°35' E 134°53'410.5
2017-Oct-09 07:30N 34°37' E 134°57'4 8.9
2017-Oct-09 07:00N 34°37' E 135°02'5 9.2
2017-Oct-09 06:30N 34°36' E 135°08'612.2
2017-Oct-09 06:00N 34°37' E 135°15'3 5.0
2017-Oct-09 05:30N 34°40' E 135°14'0 0.1
2017-Oct-09 04:48N 34°40' E 135°14'0 0.0
2017-Oct-09 04:06N 34°40' E 135°14'0 0.0
2017-Oct-09 04:00N 34°40' E 135°14'0 0.0
2017-Oct-09 03:24N 34°40' E 135°14'0 0.0
2017-Oct-09 03:00N 34°40' E 135°14'0 0.0
2017-Oct-09 02:30N 34°40' E 135°14'0 0.0
2017-Oct-09 02:00N 34°40' E 135°14'1 1.5
2017-Oct-09 01:26N 34°39' E 135°15'0 0.0
2017-Oct-09 00:50N 34°39' E 135°15'0 0.4
2017-Oct-09 00:30N 34°39' E 135°15'1 1.8
2017-Oct-09 00:00N 34°40' E 135°15'2 2.9
2017-Oct-08 23:28N 34°41' E 135°17'0 0.0
2017-Oct-08 22:58N 34°41' E 135°17'0 0.0
2017-Oct-08 22:28N 34°41' E 135°17'0 0.0
2017-Oct-08 21:58N 34°41' E 135°17'0 0.0
2017-Oct-08 21:22N 34°41' E 135°17'0 0.0
2017-Oct-08 20:58N 34°41' E 135°17'0 0.0
2017-Oct-08 20:22N 34°41' E 135°17'0 0.0
2017-Oct-08 19:58N 34°41' E 135°17'0 0.0
2017-Oct-08 19:28N 34°41' E 135°17'0 0.0
2017-Oct-08 18:58N 34°41' E 135°17'0 0.0
2017-Oct-08 18:28N 34°41' E 135°17'0 0.0
2017-Oct-08 17:58N 34°41' E 135°17'0 0.0
2017-Oct-08 17:28N 34°41' E 135°17'0 0.0
2017-Oct-08 16:58N 34°41' E 135°17'0 0.0
2017-Oct-08 16:28N 34°41' E 135°17'0 0.0
2017-Oct-08 15:58N 34°41' E 135°17'0 0.0
2017-Oct-08 15:22N 34°41' E 135°17'0 0.0
2017-Oct-08 14:58N 34°41' E 135°17'0 0.0
2017-Oct-08 14:22N 34°41' E 135°17'0 0.0
2017-Oct-08 13:58N 34°41' E 135°17'0 0.0
2017-Oct-08 13:28N 34°41' E 135°17'0 0.0
2017-Oct-08 12:52N 34°41' E 135°17'0 0.0
2017-Oct-08 12:28N 34°41' E 135°17'0 0.0
2017-Oct-08 11:58N 34°41' E 135°17'0 0.0
2017-Oct-08 11:28N 34°41' E 135°17'0 0.0
2017-Oct-08 10:58N 34°41' E 135°17'0 0.0
2017-Oct-08 10:16N 34°41' E 135°17'0 0.0
2017-Oct-08 09:58N 34°41' E 135°17'0 0.0
2017-Oct-08 09:28N 34°41' E 135°17'0 0.0
2017-Oct-08 08:58N 34°41' E 135°17'0 0.0
2017-Oct-08 08:28N 34°41' E 135°17'0 0.0
2017-Oct-08 07:58N 34°41' E 135°17'0 0.0
2017-Oct-08 07:28N 34°41' E 135°17'0 0.0
2017-Oct-08 06:58N 34°41' E 135°17'0 0.0
2017-Oct-08 06:28N 34°41' E 135°17'0 0.0
2017-Oct-08 05:46N 34°41' E 135°17'0 0.0
2017-Oct-08 05:28N 34°41' E 135°17'  
Track history (hours):
 
Tides and Currents Weather Stations Pressure Air Temp Water Temp Dewpoint Dewpoint Depression Visibility Wind Speed Wind Dir Waves Ship Positions

Ashiya

Last reported at 2017-Oct-18 04:28 UTC. Time now 2017-Oct-19 05:45 UTC.
Position N 34°36' E 134°53'.

Length 96 m; draft 4.5 m.

Type: Cargo ship. MMSI: 431501871.

Date/timePositionNaut miles runAvg speedWind from/ knotsBaromVisibWave heightAir tempDewpointWater temp
2017-Oct-18 04:28N 34°36' E 134°53'710.6
2017-Oct-18 03:51N 34°37' E 135°01'3 9.4
2017-Oct-18 03:29N 34°36' E 135°05'613.1
2017-Oct-18 03:00N 34°37' E 135°12'3 6.7
2017-Oct-18 02:30N 34°40' E 135°14'0 0.0
2017-Oct-18 01:56N 34°40' E 135°14'0 0.0
2017-Oct-18 01:31N 34°40' E 135°14'2 4.4
2017-Oct-18 01:00N 34°41' E 135°17'0 0.0
2017-Oct-18 00:30N 34°41' E 135°17'1 1.3
2017-Oct-18 00:00N 34°41' E 135°17'3 5.0
2017-Oct-17 23:25N 34°38' E 135°19'0 0.1
2017-Oct-17 22:55N 34°38' E 135°19'0 0.0
2017-Oct-17 22:25N 34°38' E 135°19'0 0.0
2017-Oct-17 21:49N 34°38' E 135°19'0 0.0
2017-Oct-17 20:43N 34°38' E 135°19'0 0.1
2017-Oct-17 20:19N 34°38' E 135°19'0 0.1
2017-Oct-17 19:56N 34°38' E 135°19'4 9.2
2017-Oct-17 19:30N 34°36' E 135°15'612.8
2017-Oct-17 19:00N 34°34' E 135°08'713.6
2017-Oct-17 18:30N 34°37' E 135°00'713.5
2017-Oct-17 17:59N 34°34' E 134°52'2 0.0
2017-Oct-16 06:52N 34°36' E 134°53'514.0
2017-Oct-16 06:30N 34°37' E 134°58'612.3
2017-Oct-16 06:00N 34°36' E 135°06'612.9
2017-Oct-16 05:30N 34°37' E 135°14'3 5.8
2017-Oct-16 05:00N 34°40' E 135°14'0 0.0
2017-Oct-16 04:30N 34°40' E 135°14'0 0.0
2017-Oct-16 04:00N 34°40' E 135°14'0 0.0
2017-Oct-16 03:30N 34°40' E 135°14'0 0.0
2017-Oct-16 03:00N 34°40' E 135°14'0 0.0
2017-Oct-16 02:30N 34°40' E 135°14'1 1.6
2017-Oct-16 02:00N 34°39' E 135°15'1 2.3
2017-Oct-16 01:31N 34°40' E 135°15'1 2.4
2017-Oct-16 00:54N 34°41' E 135°17'0 0.0
2017-Oct-16 00:30N 34°41' E 135°17'0 0.9
2017-Oct-16 00:00N 34°41' E 135°16'3 4.9
2017-Oct-15 23:23N 34°41' E 135°13'0 0.0
2017-Oct-15 22:59N 34°41' E 135°13'0 0.0
2017-Oct-15 22:29N 34°41' E 135°13'0 0.0
2017-Oct-15 21:59N 34°41' E 135°13'0 0.0
2017-Oct-15 21:29N 34°41' E 135°13'0 0.0
2017-Oct-15 20:53N 34°41' E 135°13'0 0.0
2017-Oct-15 20:23N 34°41' E 135°13'0 0.0
2017-Oct-15 19:59N 34°41' E 135°13'0 0.0
2017-Oct-15 19:29N 34°41' E 135°13'0 0.0
2017-Oct-15 18:59N 34°41' E 135°13'0 0.0
2017-Oct-15 18:29N 34°41' E 135°13'0 0.0
2017-Oct-15 17:59N 34°41' E 135°13'0 0.0
2017-Oct-15 17:29N 34°41' E 135°13'0 0.0
2017-Oct-15 16:59N 34°41' E 135°13'0 0.0
2017-Oct-15 16:29N 34°41' E 135°13'0 0.0
2017-Oct-15 15:59N 34°41' E 135°13'0 0.0
2017-Oct-15 15:29N 34°41' E 135°13'0 0.0
2017-Oct-15 14:59N 34°41' E 135°13'0 0.0
2017-Oct-15 13:53N 34°41' E 135°13'0 0.0
2017-Oct-15 13:29N 34°41' E 135°13'0 0.0
2017-Oct-15 12:59N 34°41' E 135°13'0 0.0
2017-Oct-15 12:29N 34°41' E 135°13'0 0.0
2017-Oct-15 11:53N 34°41' E 135°13'0 0.0
2017-Oct-15 11:23N 34°41' E 135°13'0 0.0
2017-Oct-15 10:59N 34°41' E 135°13'0 0.0
2017-Oct-15 10:29N 34°41' E 135°13'0 0.0
2017-Oct-15 09:59N 34°41' E 135°13'0 0.0
2017-Oct-15 09:29N 34°41' E 135°13'0 0.0
2017-Oct-15 08:59N 34°41' E 135°13'0 0.0
2017-Oct-15 08:23N 34°41' E 135°13'0 0.0
2017-Oct-15 07:59N 34°41' E 135°13'0 0.0
2017-Oct-15 07:29N 34°41' E 135°13'0 0.0
2017-Oct-15 06:59N 34°41' E 135°13'0 0.0
2017-Oct-15 06:29N 34°41' E 135°13'0 0.0
2017-Oct-15 05:59N 34°41' E 135°13'0 0.0
2017-Oct-15 05:29N 34°41' E 135°13'0 0.0
2017-Oct-15 04:59N 34°41' E 135°13'0 0.0
2017-Oct-15 04:29N 34°41' E 135°13'0 0.0
2017-Oct-15 03:59N 34°41' E 135°13'0 0.0
2017-Oct-15 03:23N 34°41' E 135°13'0 0.0
2017-Oct-15 02:59N 34°41' E 135°13'0 0.0
2017-Oct-15 02:29N 34°41' E 135°13'0 0.0
2017-Oct-15 01:59N 34°41' E 135°13'0 0.0
2017-Oct-15 01:29N 34°41' E 135°13'0 0.0
2017-Oct-15 00:53N 34°41' E 135°13'0 0.0
2017-Oct-15 00:29N 34°41' E 135°13'0 0.0
2017-Oct-14 23:59N 34°41' E 135°13'1 2.4
2017-Oct-14 23:30N 34°41' E 135°14'4 7.9
2017-Oct-14 23:00N 34°37' E 135°14'0 0.5
2017-Oct-14 22:29N 34°37' E 135°14'0 0.0
2017-Oct-14 21:59N 34°37' E 135°14'0 0.0
2017-Oct-14 21:29N 34°37' E 135°14'0 0.0
2017-Oct-14 20:59N 34°37' E 135°14'0 0.0
2017-Oct-14 20:29N 34°37' E 135°14'0 0.0
2017-Oct-14 19:59N 34°37' E 135°14'0 0.0
2017-Oct-14 19:29N 34°37' E 135°14'0 0.0
2017-Oct-14 18:59N 34°37' E 135°14'0 0.1
2017-Oct-14 18:23N 34°37' E 135°14'0 0.2
2017-Oct-14 18:00N 34°37' E 135°14'5 9.9
2017-Oct-14 17:31N 34°36' E 135°09'712.7
2017-Oct-14 16:59N 34°37' E 135°01'612.7
2017-Oct-14 16:31N 34°35' E 134°54'712.7
2017-Oct-14 15:59N 34°32' E 134°46'6 0.2
2017-Oct-13 09:44N 34°35' E 134°52'312.8
2017-Oct-13 09:30N 34°37' E 134°55'612.1
2017-Oct-13 08:59N 34°37' E 135°03'612.4
2017-Oct-13 08:30N 34°37' E 135°10'510.1
2017-Oct-13 08:00N 34°39' E 135°15'1 1.0
2017-Oct-13 07:20N 34°39' E 135°15'0 0.0
2017-Oct-13 06:56N 34°39' E 135°15'0 0.0
2017-Oct-13 06:30N 34°39' E 135°15'2 4.0
2017-Oct-13 06:00N 34°41' E 135°16'0 0.7
2017-Oct-13 05:30N 34°41' E 135°17'0 0.0
2017-Oct-13 05:00N 34°41' E 135°17'0 0.0
2017-Oct-13 04:30N 34°41' E 135°17'0 0.0
2017-Oct-13 04:00N 34°41' E 135°17'3 5.6
2017-Oct-13 03:30N 34°39' E 135°19'0 0.5
2017-Oct-13 03:00N 34°39' E 135°19'0 0.0
2017-Oct-13 02:18N 34°39' E 135°19'0 0.0
2017-Oct-13 01:48N 34°39' E 135°19'0 0.0
2017-Oct-13 01:24N 34°39' E 135°19'0 0.0
2017-Oct-13 01:00N 34°39' E 135°19'4 7.6
2017-Oct-13 00:31N 34°39' E 135°15'0 0.3
2017-Oct-13 00:00N 34°39' E 135°15'0 0.0
2017-Oct-12 23:30N 34°39' E 135°15'2 4.3
2017-Oct-12 23:00N 34°37' E 135°15'1 1.7
2017-Oct-12 22:27N 34°37' E 135°14'0 0.0
2017-Oct-12 21:57N 34°37' E 135°14'0 0.1
2017-Oct-12 21:30N 34°37' E 135°14'5 9.7
2017-Oct-12 21:00N 34°35' E 135°08'612.8
2017-Oct-12 20:30N 34°37' E 135°01'612.6
2017-Oct-12 20:00N 34°35' E 134°53'21 0.5
2017-Oct-10 23:36N 34°38' E 135°19'0 0.0
2017-Oct-10 23:30N 34°38' E 135°19'0 0.0
2017-Oct-10 22:54N 34°38' E 135°19'0 0.0
2017-Oct-10 22:24N 34°38' E 135°19'0 0.1
2017-Oct-10 22:00N 34°38' E 135°19'0 0.0
2017-Oct-10 21:30N 34°38' E 135°19'0 0.0
2017-Oct-10 21:00N 34°38' E 135°19'0 0.1
2017-Oct-10 20:24N 34°38' E 135°19'0 0.1
2017-Oct-10 20:00N 34°38' E 135°19'4 7.5
2017-Oct-10 19:30N 34°36' E 135°15'612.8
2017-Oct-10 19:00N 34°35' E 135°08'714.4
2017-Oct-10 18:30N 34°37' E 134°59'714.2
2017-Oct-10 18:01N 34°34' E 134°51'5 0.2
2017-Oct-09 08:26N 34°33' E 134°45'711.7
2017-Oct-09 07:52N 34°35' E 134°53'410.5
2017-Oct-09 07:30N 34°37' E 134°57'4 8.9
2017-Oct-09 07:00N 34°37' E 135°02'5 9.2
2017-Oct-09 06:30N 34°36' E 135°08'612.2
2017-Oct-09 06:00N 34°37' E 135°15'3 5.0
2017-Oct-09 05:30N 34°40' E 135°14'0 0.1
2017-Oct-09 04:48N 34°40' E 135°14'0 0.0
2017-Oct-09 04:06N 34°40' E 135°14'0 0.0
2017-Oct-09 04:00N 34°40' E 135°14'0 0.0
2017-Oct-09 03:24N 34°40' E 135°14'0 0.0
2017-Oct-09 03:00N 34°40' E 135°14'0 0.0
2017-Oct-09 02:30N 34°40' E 135°14'0 0.0
2017-Oct-09 02:00N 34°40' E 135°14'1 1.5
2017-Oct-09 01:26N 34°39' E 135°15'0 0.0
2017-Oct-09 00:50N 34°39' E 135°15'0 0.4
2017-Oct-09 00:30N 34°39' E 135°15'1 1.8
2017-Oct-09 00:00N 34°40' E 135°15'2 2.9
2017-Oct-08 23:28N 34°41' E 135°17'0 0.0
2017-Oct-08 22:58N 34°41' E 135°17'0 0.0
2017-Oct-08 22:28N 34°41' E 135°17'0 0.0
2017-Oct-08 21:58N 34°41' E 135°17'0 0.0
2017-Oct-08 21:22N 34°41' E 135°17'0 0.0
2017-Oct-08 20:58N 34°41' E 135°17'0 0.0
2017-Oct-08 20:22N 34°41' E 135°17'0 0.0
2017-Oct-08 19:58N 34°41' E 135°17'0 0.0
2017-Oct-08 19:28N 34°41' E 135°17'0 0.0
2017-Oct-08 18:58N 34°41' E 135°17'0 0.0
2017-Oct-08 18:28N 34°41' E 135°17'0 0.0
2017-Oct-08 17:58N 34°41' E 135°17'0 0.0
2017-Oct-08 17:28N 34°41' E 135°17'0 0.0
2017-Oct-08 16:58N 34°41' E 135°17'0 0.0
2017-Oct-08 16:28N 34°41' E 135°17'0 0.0
2017-Oct-08 15:58N 34°41' E 135°17'0 0.0
2017-Oct-08 15:22N 34°41' E 135°17'0 0.0
2017-Oct-08 14:58N 34°41' E 135°17'0 0.0
2017-Oct-08 14:22N 34°41' E 135°17'0 0.0
2017-Oct-08 13:58N 34°41' E 135°17'0 0.0
2017-Oct-08 13:28N 34°41' E 135°17'0 0.0
2017-Oct-08 12:52N 34°41' E 135°17'0 0.0
2017-Oct-08 12:28N 34°41' E 135°17'0 0.0
2017-Oct-08 11:58N 34°41' E 135°17'0 0.0
2017-Oct-08 11:28N 34°41' E 135°17'0 0.0
2017-Oct-08 10:58N 34°41' E 135°17'0 0.0
2017-Oct-08 10:16N 34°41' E 135°17'0 0.0
2017-Oct-08 09:58N 34°41' E 135°17'0 0.0
2017-Oct-08 09:28N 34°41' E 135°17'0 0.0
2017-Oct-08 08:58N 34°41' E 135°17'0 0.0
2017-Oct-08 08:28N 34°41' E 135°17'0 0.0
2017-Oct-08 07:58N 34°41' E 135°17'0 0.0
2017-Oct-08 07:28N 34°41' E 135°17'0 0.0
2017-Oct-08 06:58N 34°41' E 135°17'0 0.0
2017-Oct-08 06:28N 34°41' E 135°17'0 0.0
2017-Oct-08 05:46N 34°41' E 135°17'0 0.0
2017-Oct-08 05:28N 34°41' E 135°17'  

Dump ship's entire track history